Atlantic Beach, South Carolina
Current Conditions -  °F | °C
As of 9:14 PM on Monday 22 Dec 2014 (Local Time) from KCRE Reporting Station
Haze Haze  
Wind Chill: 41°   Ceiling: 200
Heat Index: 45°   Visibility: 1.7mi
Dew Point: 44°   Wind: 7mph
Humidity: 97%   Direction: 40°NE
Pressure: 30.02"   Gusts: NA
Location:  33.8371°N, 78.6471°W
Report Text: KCRE 230214Z AUTO 04006KT 1 3/4SM BR OVC002 07/07 A3002 RMK AO1 T00720067
Loading
Personal Weather Stations






























Interactive Weather Map New forecast layout! Learn more

10-Day Weather Forecast

Advertisements
Track Severe Weather on mobile